sensor_id;sensor_type;location;lat;lon;timestamp;P1;durP1;ratioP1;P2;durP2;ratioP2
48897;SDS011;34713;50.038;20.000;2023-12-07T00:00:18;95.80;;;44.00;;
48897;SDS011;34713;50.038;20.000;2023-12-07T00:03:05;89.90;;;41.90;;
48897;SDS011;34713;50.038;20.000;2023-12-07T00:05:33;93.00;;;43.50;;
48897;SDS011;34713;50.038;20.000;2023-12-07T00:07:59;88.70;;;42.10;;
48897;SDS011;34713;50.038;20.000;2023-12-07T00:10:26;93.50;;;43.10;;
48897;SDS011;34713;50.038;20.000;2023-12-07T00:12:52;99.90;;;46.30;;
48897;SDS011;34713;50.038;20.000;2023-12-07T00:15:19;91.40;;;43.60;;
48897;SDS011;34713;50.038;20.000;2023-12-07T00:17:45;95.60;;;45.20;;
48897;SDS011;34713;50.038;20.000;2023-12-07T00:20:12;108.60;;;48.50;;
48897;SDS011;34713;50.038;20.000;2023-12-07T00:22:38;107.10;;;48.60;;
48897;SDS011;34713;50.038;20.000;2023-12-07T00:25:05;100.80;;;46.20;;
48897;SDS011;34713;50.038;20.000;2023-12-07T00:27:32;101.50;;;48.60;;
48897;SDS011;34713;50.038;20.000;2023-12-07T00:29:58;103.60;;;48.50;;
48897;SDS011;34713;50.038;20.000;2023-12-07T00:32:25;103.50;;;47.50;;
48897;SDS011;34713;50.038;20.000;2023-12-07T00:34:53;99.10;;;47.30;;
48897;SDS011;34713;50.038;20.000;2023-12-07T00:37:19;100.50;;;46.80;;
48897;SDS011;34713;50.038;20.000;2023-12-07T00:39:46;97.00;;;45.50;;
48897;SDS011;34713;50.038;20.000;2023-12-07T00:42:12;96.10;;;45.40;;
48897;SDS011;34713;50.038;20.000;2023-12-07T00:44:39;94.70;;;44.70;;
48897;SDS011;34713;50.038;20.000;2023-12-07T00:47:07;101.80;;;45.70;;
48897;SDS011;34713;50.038;20.000;2023-12-07T00:49:33;93.40;;;47.10;;
48897;SDS011;34713;50.038;20.000;2023-12-07T00:52:00;93.10;;;46.80;;
48897;SDS011;34713;50.038;20.000;2023-12-07T00:54:26;100.60;;;45.70;;
48897;SDS011;34713;50.038;20.000;2023-12-07T00:56:53;97.10;;;47.30;;
48897;SDS011;34713;50.038;20.000;2023-12-07T00:59:19;98.10;;;45.50;;
48897;SDS011;34713;50.038;20.000;2023-12-07T01:01:46;97.40;;;46.10;;
48897;SDS011;34713;50.038;20.000;2023-12-07T01:04:12;93.30;;;45.70;;
48897;SDS011;34713;50.038;20.000;2023-12-07T01:06:39;100.00;;;46.00;;
48897;SDS011;34713;50.038;20.000;2023-12-07T01:09:05;95.50;;;47.50;;
48897;SDS011;34713;50.038;20.000;2023-12-07T01:11:32;101.40;;;48.50;;
48897;SDS011;34713;50.038;20.000;2023-12-07T01:13:58;95.20;;;48.00;;
48897;SDS011;34713;50.038;20.000;2023-12-07T01:16:24;99.40;;;46.60;;
48897;SDS011;34713;50.038;20.000;2023-12-07T01:18:51;94.60;;;45.30;;
48897;SDS011;34713;50.038;20.000;2023-12-07T01:21:17;98.70;;;47.10;;
48897;SDS011;34713;50.038;20.000;2023-12-07T01:23:44;101.30;;;48.40;;
48897;SDS011;34713;50.038;20.000;2023-12-07T01:26:11;99.80;;;46.80;;
48897;SDS011;34713;50.038;20.000;2023-12-07T01:28:37;104.20;;;47.90;;
48897;SDS011;34713;50.038;20.000;2023-12-07T01:31:05;100.50;;;48.40;;
48897;SDS011;34713;50.038;20.000;2023-12-07T01:33:31;98.00;;;47.20;;
48897;SDS011;34713;50.038;20.000;2023-12-07T01:35:58;105.30;;;49.00;;
48897;SDS011;34713;50.038;20.000;2023-12-07T01:38:24;101.10;;;46.00;;
48897;SDS011;34713;50.038;20.000;2023-12-07T01:40:50;101.80;;;46.70;;
48897;SDS011;34713;50.038;20.000;2023-12-07T01:43:17;100.90;;;47.40;;
48897;SDS011;34713;50.038;20.000;2023-12-07T01:45:43;96.60;;;45.50;;
48897;SDS011;34713;50.038;20.000;2023-12-07T01:48:10;99.50;;;45.60;;
48897;SDS011;34713;50.038;20.000;2023-12-07T01:50:37;89.90;;;46.10;;
48897;SDS011;34713;50.038;20.000;2023-12-07T01:53:03;98.80;;;47.00;;
48897;SDS011;34713;50.038;20.000;2023-12-07T01:55:31;93.80;;;47.00;;
48897;SDS011;34713;50.038;20.000;2023-12-07T01:57:58;102.80;;;48.50;;
48897;SDS011;34713;50.038;20.000;2023-12-07T02:00:25;98.20;;;47.50;;
48897;SDS011;34713;50.038;20.000;2023-12-07T02:02:53;99.10;;;48.60;;
48897;SDS011;34713;50.038;20.000;2023-12-07T02:05:20;102.00;;;48.40;;
48897;SDS011;34713;50.038;20.000;2023-12-07T02:07:46;101.70;;;48.90;;
48897;SDS011;34713;50.038;20.000;2023-12-07T02:10:13;98.80;;;47.20;;
48897;SDS011;34713;50.038;20.000;2023-12-07T02:12:39;101.80;;;47.00;;
48897;SDS011;34713;50.038;20.000;2023-12-07T02:15:06;98.70;;;48.70;;
48897;SDS011;34713;50.038;20.000;2023-12-07T02:17:48;99.40;;;47.00;;
48897;SDS011;34713;50.038;20.000;2023-12-07T02:23:07;93.40;;;45.00;;
48897;SDS011;34713;50.038;20.000;2023-12-07T02:25:40;98.40;;;46.60;;
48897;SDS011;34713;50.038;20.000;2023-12-07T02:28:11;90.30;;;43.10;;
48897;SDS011;34713;50.038;20.000;2023-12-07T02:30:37;99.10;;;45.20;;
48897;SDS011;34713;50.038;20.000;2023-12-07T02:33:04;95.40;;;45.30;;
48897;SDS011;34713;50.038;20.000;2023-12-07T02:35:31;96.10;;;47.00;;
48897;SDS011;34713;50.038;20.000;2023-12-07T02:37:58;97.80;;;47.10;;
48897;SDS011;34713;50.038;20.000;2023-12-07T02:40:26;98.10;;;46.60;;
48897;SDS011;34713;50.038;20.000;2023-12-07T02:42:54;99.60;;;47.40;;
48897;SDS011;34713;50.038;20.000;2023-12-07T02:45:22;97.60;;;45.50;;
48897;SDS011;34713;50.038;20.000;2023-12-07T02:47:48;96.80;;;46.50;;
48897;SDS011;34713;50.038;20.000;2023-12-07T02:50:15;94.10;;;46.50;;
48897;SDS011;34713;50.038;20.000;2023-12-07T02:52:41;94.70;;;46.10;;
48897;SDS011;34713;50.038;20.000;2023-12-07T02:55:08;99.80;;;48.10;;
48897;SDS011;34713;50.038;20.000;2023-12-07T02:57:35;94.10;;;44.90;;
48897;SDS011;34713;50.038;20.000;2023-12-07T03:00:02;103.80;;;47.10;;
48897;SDS011;34713;50.038;20.000;2023-12-07T03:02:33;100.40;;;47.10;;
48897;SDS011;34713;50.038;20.000;2023-12-07T03:05:00;98.90;;;44.00;;
48897;SDS011;34713;50.038;20.000;2023-12-07T03:07:27;94.10;;;45.90;;
48897;SDS011;34713;50.038;20.000;2023-12-07T03:09:54;93.60;;;43.80;;
48897;SDS011;34713;50.038;20.000;2023-12-07T03:12:20;94.30;;;46.10;;
48897;SDS011;34713;50.038;20.000;2023-12-07T03:14:46;97.00;;;44.70;;
48897;SDS011;34713;50.038;20.000;2023-12-07T03:17:13;95.20;;;44.30;;
48897;SDS011;34713;50.038;20.000;2023-12-07T03:19:40;93.60;;;44.70;;
48897;SDS011;34713;50.038;20.000;2023-12-07T03:22:07;103.20;;;46.30;;
48897;SDS011;34713;50.038;20.000;2023-12-07T03:24:35;94.30;;;44.40;;
48897;SDS011;34713;50.038;20.000;2023-12-07T03:27:02;96.40;;;44.00;;
48897;SDS011;34713;50.038;20.000;2023-12-07T03:29:29;91.20;;;41.80;;
48897;SDS011;34713;50.038;20.000;2023-12-07T03:31:56;93.70;;;43.80;;
48897;SDS011;34713;50.038;20.000;2023-12-07T03:34:22;98.80;;;45.80;;
48897;SDS011;34713;50.038;20.000;2023-12-07T03:36:49;90.20;;;42.50;;
48897;SDS011;34713;50.038;20.000;2023-12-07T03:39:16;99.40;;;46.20;;
48897;SDS011;34713;50.038;20.000;2023-12-07T03:41:48;95.60;;;46.70;;
48897;SDS011;34713;50.038;20.000;2023-12-07T03:44:15;96.50;;;44.20;;
48897;SDS011;34713;50.038;20.000;2023-12-07T03:46:41;105.50;;;46.20;;
48897;SDS011;34713;50.038;20.000;2023-12-07T03:49:08;95.50;;;46.20;;
48897;SDS011;34713;50.038;20.000;2023-12-07T03:51:34;102.20;;;46.70;;
48897;SDS011;34713;50.038;20.000;2023-12-07T03:54:03;99.30;;;47.60;;
48897;SDS011;34713;50.038;20.000;2023-12-07T03:56:30;98.00;;;44.80;;
48897;SDS011;34713;50.038;20.000;2023-12-07T03:58:57;99.00;;;44.40;;
48897;SDS011;34713;50.038;20.000;2023-12-07T04:01:23;105.30;;;49.10;;
48897;SDS011;34713;50.038;20.000;2023-12-07T04:03:51;99.70;;;48.70;;
48897;SDS011;34713;50.038;20.000;2023-12-07T04:06:18;100.70;;;47.20;;
48897;SDS011;34713;50.038;20.000;2023-12-07T04:08:45;95.90;;;45.90;;
48897;SDS011;34713;50.038;20.000;2023-12-07T04:11:12;101.40;;;47.90;;
48897;SDS011;34713;50.038;20.000;2023-12-07T04:13:40;111.60;;;47.80;;
48897;SDS011;34713;50.038;20.000;2023-12-07T04:16:07;104.40;;;46.70;;
48897;SDS011;34713;50.038;20.000;2023-12-07T04:18:34;103.10;;;46.30;;
48897;SDS011;34713;50.038;20.000;2023-12-07T04:21:01;106.20;;;47.40;;
48897;SDS011;34713;50.038;20.000;2023-12-07T04:23:27;94.90;;;45.30;;
48897;SDS011;34713;50.038;20.000;2023-12-07T04:25:54;100.50;;;47.10;;
48897;SDS011;34713;50.038;20.000;2023-12-07T04:28:20;105.60;;;49.60;;
48897;SDS011;34713;50.038;20.000;2023-12-07T04:30:47;96.20;;;44.50;;
48897;SDS011;34713;50.038;20.000;2023-12-07T04:33:14;102.00;;;46.80;;
48897;SDS011;34713;50.038;20.000;2023-12-07T04:35:40;105.00;;;49.00;;
48897;SDS011;34713;50.038;20.000;2023-12-07T04:38:07;96.00;;;46.10;;
48897;SDS011;34713;50.038;20.000;2023-12-07T04:40:33;100.50;;;47.40;;
48897;SDS011;34713;50.038;20.000;2023-12-07T04:43:00;102.70;;;46.90;;
48897;SDS011;34713;50.038;20.000;2023-12-07T04:45:26;103.70;;;48.50;;
48897;SDS011;34713;50.038;20.000;2023-12-07T04:47:52;104.50;;;49.10;;
48897;SDS011;34713;50.038;20.000;2023-12-07T04:50:19;106.70;;;50.00;;
48897;SDS011;34713;50.038;20.000;2023-12-07T04:52:46;110.30;;;52.40;;
48897;SDS011;34713;50.038;20.000;2023-12-07T04:55:12;103.30;;;48.40;;
48897;SDS011;34713;50.038;20.000;2023-12-07T04:57:39;106.50;;;47.20;;
48897;SDS011;34713;50.038;20.000;2023-12-07T05:00:05;105.80;;;48.20;;
48897;SDS011;34713;50.038;20.000;2023-12-07T05:02:32;107.10;;;51.00;;
48897;SDS011;34713;50.038;20.000;2023-12-07T05:04:59;99.40;;;48.10;;
48897;SDS011;34713;50.038;20.000;2023-12-07T05:07:25;104.00;;;50.40;;
48897;SDS011;34713;50.038;20.000;2023-12-07T05:09:52;97.20;;;46.00;;
48897;SDS011;34713;50.038;20.000;2023-12-07T05:12:18;92.50;;;46.30;;
48897;SDS011;34713;50.038;20.000;2023-12-07T05:14:45;102.30;;;46.70;;
48897;SDS011;34713;50.038;20.000;2023-12-07T05:17:11;98.60;;;46.00;;
48897;SDS011;34713;50.038;20.000;2023-12-07T05:19:38;101.90;;;46.70;;
48897;SDS011;34713;50.038;20.000;2023-12-07T05:22:04;100.80;;;46.80;;
48897;SDS011;34713;50.038;20.000;2023-12-07T05:24:31;108.80;;;48.40;;
48897;SDS011;34713;50.038;20.000;2023-12-07T05:27:00;103.00;;;49.20;;
48897;SDS011;34713;50.038;20.000;2023-12-07T05:29:27;98.80;;;46.80;;
48897;SDS011;34713;50.038;20.000;2023-12-07T05:31:53;106.10;;;49.30;;
48897;SDS011;34713;50.038;20.000;2023-12-07T05:34:20;103.40;;;47.20;;
48897;SDS011;34713;50.038;20.000;2023-12-07T05:36:46;105.40;;;48.50;;
48897;SDS011;34713;50.038;20.000;2023-12-07T05:39:13;98.50;;;46.40;;
48897;SDS011;34713;50.038;20.000;2023-12-07T05:41:40;104.70;;;49.90;;
48897;SDS011;34713;50.038;20.000;2023-12-07T05:44:06;99.30;;;46.60;;
48897;SDS011;34713;50.038;20.000;2023-12-07T05:46:35;107.50;;;51.30;;
48897;SDS011;34713;50.038;20.000;2023-12-07T05:49:02;101.10;;;48.50;;
48897;SDS011;34713;50.038;20.000;2023-12-07T05:51:29;102.70;;;47.80;;
48897;SDS011;34713;50.038;20.000;2023-12-07T05:53:55;98.10;;;48.60;;
48897;SDS011;34713;50.038;20.000;2023-12-07T05:56:22;105.40;;;50.70;;
48897;SDS011;34713;50.038;20.000;2023-12-07T05:58:48;104.60;;;48.80;;
48897;SDS011;34713;50.038;20.000;2023-12-07T06:01:18;96.30;;;49.20;;
48897;SDS011;34713;50.038;20.000;2023-12-07T06:03:47;102.70;;;50.20;;
48897;SDS011;34713;50.038;20.000;2023-12-07T06:06:14;100.20;;;47.60;;
48897;SDS011;34713;50.038;20.000;2023-12-07T06:08:40;101.20;;;49.50;;
48897;SDS011;34713;50.038;20.000;2023-12-07T06:11:07;108.50;;;51.30;;
48897;SDS011;34713;50.038;20.000;2023-12-07T06:13:34;106.40;;;51.10;;
48897;SDS011;34713;50.038;20.000;2023-12-07T06:16:00;107.20;;;52.00;;
48897;SDS011;34713;50.038;20.000;2023-12-07T06:18:29;110.30;;;52.40;;
48897;SDS011;34713;50.038;20.000;2023-12-07T06:20:55;103.10;;;50.20;;
48897;SDS011;34713;50.038;20.000;2023-12-07T06:23:22;109.60;;;52.50;;
48897;SDS011;34713;50.038;20.000;2023-12-07T06:25:48;109.80;;;53.90;;
48897;SDS011;34713;50.038;20.000;2023-12-07T06:28:15;103.60;;;51.60;;
48897;SDS011;34713;50.038;20.000;2023-12-07T06:30:42;108.80;;;53.20;;
48897;SDS011;34713;50.038;20.000;2023-12-07T06:33:08;106.70;;;51.20;;
48897;SDS011;34713;50.038;20.000;2023-12-07T06:35:35;111.20;;;55.70;;
48897;SDS011;34713;50.038;20.000;2023-12-07T06:38:01;110.70;;;53.30;;
48897;SDS011;34713;50.038;20.000;2023-12-07T06:40:28;114.00;;;53.80;;
48897;SDS011;34713;50.038;20.000;2023-12-07T06:42:54;108.00;;;53.70;;
48897;SDS011;34713;50.038;20.000;2023-12-07T06:45:21;112.80;;;55.20;;
48897;SDS011;34713;50.038;20.000;2023-12-07T06:47:47;109.10;;;53.00;;
48897;SDS011;34713;50.038;20.000;2023-12-07T06:50:14;112.30;;;54.40;;
48897;SDS011;34713;50.038;20.000;2023-12-07T06:52:41;109.10;;;54.80;;
48897;SDS011;34713;50.038;20.000;2023-12-07T06:55:08;107.10;;;50.60;;
48897;SDS011;34713;50.038;20.000;2023-12-07T06:57:37;113.80;;;54.30;;
48897;SDS011;34713;50.038;20.000;2023-12-07T07:00:04;111.60;;;52.70;;
48897;SDS011;34713;50.038;20.000;2023-12-07T07:02:39;102.10;;;51.50;;
48897;SDS011;34713;50.038;20.000;2023-12-07T07:05:06;108.00;;;54.60;;
48897;SDS011;34713;50.038;20.000;2023-12-07T07:07:33;106.50;;;52.90;;
48897;SDS011;34713;50.038;20.000;2023-12-07T07:09:59;115.30;;;55.00;;
48897;SDS011;34713;50.038;20.000;2023-12-07T07:12:26;114.10;;;55.30;;
48897;SDS011;34713;50.038;20.000;2023-12-07T07:14:53;108.60;;;52.30;;
48897;SDS011;34713;50.038;20.000;2023-12-07T07:17:19;107.80;;;54.00;;
48897;SDS011;34713;50.038;20.000;2023-12-07T07:19:46;107.30;;;52.70;;
48897;SDS011;34713;50.038;20.000;2023-12-07T07:22:12;111.50;;;53.10;;
48897;SDS011;34713;50.038;20.000;2023-12-07T07:24:39;112.60;;;56.30;;
48897;SDS011;34713;50.038;20.000;2023-12-07T07:27:05;109.50;;;54.10;;
48897;SDS011;34713;50.038;20.000;2023-12-07T07:29:32;112.50;;;55.30;;
48897;SDS011;34713;50.038;20.000;2023-12-07T07:31:59;108.80;;;54.00;;
48897;SDS011;34713;50.038;20.000;2023-12-07T07:34:25;108.10;;;51.70;;
48897;SDS011;34713;50.038;20.000;2023-12-07T07:36:52;107.60;;;52.30;;
48897;SDS011;34713;50.038;20.000;2023-12-07T07:39:19;111.60;;;52.80;;
48897;SDS011;34713;50.038;20.000;2023-12-07T07:41:45;108.20;;;52.00;;
48897;SDS011;34713;50.038;20.000;2023-12-07T07:44:12;101.70;;;50.20;;
48897;SDS011;34713;50.038;20.000;2023-12-07T07:46:40;112.00;;;54.60;;
48897;SDS011;34713;50.038;20.000;2023-12-07T07:49:06;111.50;;;53.90;;
48897;SDS011;34713;50.038;20.000;2023-12-07T07:51:33;108.80;;;54.40;;
48897;SDS011;34713;50.038;20.000;2023-12-07T07:54:00;105.00;;;54.70;;
48897;SDS011;34713;50.038;20.000;2023-12-07T07:56:27;107.20;;;54.60;;
48897;SDS011;34713;50.038;20.000;2023-12-07T07:58:53;114.10;;;56.00;;
48897;SDS011;34713;50.038;20.000;2023-12-07T08:01:20;110.20;;;53.00;;
48897;SDS011;34713;50.038;20.000;2023-12-07T08:03:46;107.70;;;53.30;;
48897;SDS011;34713;50.038;20.000;2023-12-07T08:06:13;114.20;;;55.90;;
48897;SDS011;34713;50.038;20.000;2023-12-07T08:08:39;113.30;;;55.90;;
48897;SDS011;34713;50.038;20.000;2023-12-07T08:11:06;114.00;;;57.50;;
48897;SDS011;34713;50.038;20.000;2023-12-07T08:13:32;107.40;;;53.70;;
48897;SDS011;34713;50.038;20.000;2023-12-07T08:15:59;107.60;;;54.40;;
48897;SDS011;34713;50.038;20.000;2023-12-07T08:18:25;103.80;;;52.30;;
48897;SDS011;34713;50.038;20.000;2023-12-07T08:20:52;111.60;;;55.20;;
48897;SDS011;34713;50.038;20.000;2023-12-07T08:23:19;110.80;;;54.40;;
48897;SDS011;34713;50.038;20.000;2023-12-07T08:25:45;110.80;;;56.40;;
48897;SDS011;34713;50.038;20.000;2023-12-07T08:28:12;108.20;;;54.60;;
48897;SDS011;34713;50.038;20.000;2023-12-07T08:30:38;108.20;;;55.30;;
48897;SDS011;34713;50.038;20.000;2023-12-07T08:33:05;112.60;;;56.40;;
48897;SDS011;34713;50.038;20.000;2023-12-07T08:35:31;113.00;;;54.90;;
48897;SDS011;34713;50.038;20.000;2023-12-07T08:37:58;109.80;;;55.50;;
48897;SDS011;34713;50.038;20.000;2023-12-07T08:40:24;107.80;;;55.40;;
48897;SDS011;34713;50.038;20.000;2023-12-07T08:42:51;105.90;;;52.80;;
48897;SDS011;34713;50.038;20.000;2023-12-07T08:45:17;108.00;;;54.80;;
48897;SDS011;34713;50.038;20.000;2023-12-07T08:47:44;103.70;;;54.00;;
48897;SDS011;34713;50.038;20.000;2023-12-07T08:50:10;105.80;;;52.70;;
48897;SDS011;34713;50.038;20.000;2023-12-07T08:52:37;106.20;;;53.20;;
48897;SDS011;34713;50.038;20.000;2023-12-07T08:55:03;107.00;;;53.20;;
48897;SDS011;34713;50.038;20.000;2023-12-07T08:57:30;99.70;;;49.40;;
48897;SDS011;34713;50.038;20.000;2023-12-07T08:59:57;107.00;;;54.00;;
48897;SDS011;34713;50.038;20.000;2023-12-07T09:02:24;107.20;;;54.30;;
48897;SDS011;34713;50.038;20.000;2023-12-07T09:04:51;107.30;;;52.30;;
48897;SDS011;34713;50.038;20.000;2023-12-07T09:07:18;108.70;;;53.80;;
48897;SDS011;34713;50.038;20.000;2023-12-07T09:09:44;107.20;;;54.90;;
48897;SDS011;34713;50.038;20.000;2023-12-07T09:12:13;110.00;;;54.70;;
48897;SDS011;34713;50.038;20.000;2023-12-07T09:14:40;103.20;;;54.30;;
48897;SDS011;34713;50.038;20.000;2023-12-07T09:17:07;104.70;;;53.00;;
48897;SDS011;34713;50.038;20.000;2023-12-07T09:19:33;108.10;;;55.90;;
48897;SDS011;34713;50.038;20.000;2023-12-07T09:22:00;102.60;;;53.00;;
48897;SDS011;34713;50.038;20.000;2023-12-07T09:24:27;101.30;;;52.30;;
48897;SDS011;34713;50.038;20.000;2023-12-07T09:26:53;109.70;;;55.70;;
48897;SDS011;34713;50.038;20.000;2023-12-07T09:29:19;100.80;;;53.40;;
48897;SDS011;34713;50.038;20.000;2023-12-07T09:31:46;109.30;;;55.90;;
48897;SDS011;34713;50.038;20.000;2023-12-07T09:34:12;108.30;;;57.60;;
48897;SDS011;34713;50.038;20.000;2023-12-07T09:36:44;105.40;;;55.50;;
48897;SDS011;34713;50.038;20.000;2023-12-07T09:39:11;102.50;;;52.80;;
48897;SDS011;34713;50.038;20.000;2023-12-07T09:41:38;103.40;;;56.40;;
48897;SDS011;34713;50.038;20.000;2023-12-07T09:44:05;105.90;;;54.10;;
48897;SDS011;34713;50.038;20.000;2023-12-07T09:46:32;96.90;;;53.80;;
48897;SDS011;34713;50.038;20.000;2023-12-07T09:48:59;106.30;;;53.00;;
48897;SDS011;34713;50.038;20.000;2023-12-07T09:51:25;102.90;;;51.80;;
48897;SDS011;34713;50.038;20.000;2023-12-07T09:53:53;102.20;;;54.80;;
48897;SDS011;34713;50.038;20.000;2023-12-07T09:56:20;109.40;;;55.00;;
48897;SDS011;34713;50.038;20.000;2023-12-07T09:58:47;105.60;;;55.50;;
48897;SDS011;34713;50.038;20.000;2023-12-07T10:01:13;105.60;;;53.90;;
48897;SDS011;34713;50.038;20.000;2023-12-07T10:03:41;101.40;;;53.70;;
48897;SDS011;34713;50.038;20.000;2023-12-07T10:06:07;95.50;;;51.80;;
48897;SDS011;34713;50.038;20.000;2023-12-07T10:08:34;106.10;;;52.70;;
48897;SDS011;34713;50.038;20.000;2023-12-07T10:11:07;102.30;;;52.70;;
48897;SDS011;34713;50.038;20.000;2023-12-07T10:13:35;102.30;;;52.60;;
48897;SDS011;34713;50.038;20.000;2023-12-07T10:18:32;110.60;;;55.40;;
48897;SDS011;34713;50.038;20.000;2023-12-07T10:20:59;96.40;;;52.70;;
48897;SDS011;34713;50.038;20.000;2023-12-07T10:23:26;99.30;;;52.40;;
48897;SDS011;34713;50.038;20.000;2023-12-07T10:25:53;100.30;;;51.80;;
48897;SDS011;34713;50.038;20.000;2023-12-07T10:28:20;98.70;;;51.80;;
48897;SDS011;34713;50.038;20.000;2023-12-07T10:30:48;95.10;;;52.40;;
48897;SDS011;34713;50.038;20.000;2023-12-07T10:33:14;98.40;;;49.80;;
48897;SDS011;34713;50.038;20.000;2023-12-07T10:35:44;99.50;;;51.60;;
48897;SDS011;34713;50.038;20.000;2023-12-07T10:38:11;102.40;;;54.50;;
48897;SDS011;34713;50.038;20.000;2023-12-07T10:40:38;101.50;;;53.50;;
48897;SDS011;34713;50.038;20.000;2023-12-07T10:43:06;102.60;;;55.00;;
48897;SDS011;34713;50.038;20.000;2023-12-07T10:45:33;99.20;;;53.00;;
48897;SDS011;34713;50.038;20.000;2023-12-07T10:48:02;97.20;;;51.20;;
48897;SDS011;34713;50.038;20.000;2023-12-07T10:50:36;103.80;;;53.00;;
48897;SDS011;34713;50.038;20.000;2023-12-07T10:53:09;99.40;;;52.30;;
48897;SDS011;34713;50.038;20.000;2023-12-07T10:55:38;103.80;;;53.30;;
48897;SDS011;34713;50.038;20.000;2023-12-07T10:58:09;102.70;;;54.10;;
48897;SDS011;34713;50.038;20.000;2023-12-07T11:00:36;97.80;;;52.80;;
48897;SDS011;34713;50.038;20.000;2023-12-07T11:03:03;94.80;;;50.80;;
48897;SDS011;34713;50.038;20.000;2023-12-07T11:05:29;101.50;;;52.80;;
48897;SDS011;34713;50.038;20.000;2023-12-07T11:08:03;100.80;;;51.20;;
48897;SDS011;34713;50.038;20.000;2023-12-07T11:10:36;102.00;;;53.00;;
48897;SDS011;34713;50.038;20.000;2023-12-07T11:13:08;103.90;;;53.00;;
48897;SDS011;34713;50.038;20.000;2023-12-07T11:15:39;101.00;;;52.30;;
48897;SDS011;34713;50.038;20.000;2023-12-07T11:18:06;101.20;;;54.30;;
48897;SDS011;34713;50.038;20.000;2023-12-07T11:20:39;105.00;;;54.40;;
48897;SDS011;34713;50.038;20.000;2023-12-07T11:23:10;108.90;;;55.40;;
48897;SDS011;34713;50.038;20.000;2023-12-07T11:25:37;98.50;;;53.30;;
48897;SDS011;34713;50.038;20.000;2023-12-07T11:28:04;92.80;;;52.40;;
48897;SDS011;34713;50.038;20.000;2023-12-07T11:30:32;101.20;;;53.20;;
48897;SDS011;34713;50.038;20.000;2023-12-07T11:33:05;98.20;;;51.90;;
48897;SDS011;34713;50.038;20.000;2023-12-07T11:35:33;99.20;;;52.90;;
48897;SDS011;34713;50.038;20.000;2023-12-07T11:38:07;101.70;;;52.90;;
48897;SDS011;34713;50.038;20.000;2023-12-07T11:40:43;107.90;;;57.20;;
48897;SDS011;34713;50.038;20.000;2023-12-07T11:46:05;102.10;;;55.10;;
48897;SDS011;34713;50.038;20.000;2023-12-07T11:48:31;98.10;;;53.20;;
48897;SDS011;34713;50.038;20.000;2023-12-07T11:53:30;104.10;;;55.30;;
48897;SDS011;34713;50.038;20.000;2023-12-07T11:55:58;102.70;;;53.40;;
48897;SDS011;34713;50.038;20.000;2023-12-07T11:58:26;101.20;;;50.90;;
48897;SDS011;34713;50.038;20.000;2023-12-07T12:00:54;105.00;;;56.60;;
48897;SDS011;34713;50.038;20.000;2023-12-07T12:03:23;102.50;;;52.90;;
48897;SDS011;34713;50.038;20.000;2023-12-07T12:05:53;105.00;;;56.30;;
48897;SDS011;34713;50.038;20.000;2023-12-07T12:08:20;106.70;;;55.30;;
48897;SDS011;34713;50.038;20.000;2023-12-07T12:10:47;110.00;;;57.80;;
48897;SDS011;34713;50.038;20.000;2023-12-07T12:13:16;106.90;;;55.50;;
48897;SDS011;34713;50.038;20.000;2023-12-07T12:15:43;103.90;;;56.80;;
48897;SDS011;34713;50.038;20.000;2023-12-07T12:18:09;108.20;;;58.80;;
48897;SDS011;34713;50.038;20.000;2023-12-07T12:20:36;110.40;;;58.20;;
48897;SDS011;34713;50.038;20.000;2023-12-07T12:23:02;112.80;;;58.40;;
48897;SDS011;34713;50.038;20.000;2023-12-07T12:25:30;111.00;;;58.10;;
48897;SDS011;34713;50.038;20.000;2023-12-07T12:28:04;108.90;;;58.40;;
48897;SDS011;34713;50.038;20.000;2023-12-07T12:30:31;117.80;;;61.50;;
48897;SDS011;34713;50.038;20.000;2023-12-07T12:32:58;121.40;;;60.40;;
48897;SDS011;34713;50.038;20.000;2023-12-07T12:35:26;110.30;;;60.20;;
48897;SDS011;34713;50.038;20.000;2023-12-07T12:37:52;109.80;;;59.00;;
48897;SDS011;34713;50.038;20.000;2023-12-07T12:40:21;115.60;;;58.60;;
48897;SDS011;34713;50.038;20.000;2023-12-07T12:42:49;117.50;;;61.00;;
48897;SDS011;34713;50.038;20.000;2023-12-07T12:45:17;112.80;;;59.30;;
48897;SDS011;34713;50.038;20.000;2023-12-07T12:47:45;113.90;;;60.00;;
48897;SDS011;34713;50.038;20.000;2023-12-07T12:50:12;113.40;;;59.60;;
48897;SDS011;34713;50.038;20.000;2023-12-07T12:52:58;111.20;;;58.50;;
48897;SDS011;34713;50.038;20.000;2023-12-07T12:55:25;116.10;;;60.50;;
48897;SDS011;34713;50.038;20.000;2023-12-07T12:57:55;109.50;;;58.30;;
48897;SDS011;34713;50.038;20.000;2023-12-07T13:00:24;122.00;;;61.70;;
48897;SDS011;34713;50.038;20.000;2023-12-07T13:02:51;118.70;;;60.80;;
48897;SDS011;34713;50.038;20.000;2023-12-07T13:05:17;113.60;;;59.30;;
48897;SDS011;34713;50.038;20.000;2023-12-07T13:07:44;118.30;;;62.80;;
48897;SDS011;34713;50.038;20.000;2023-12-07T13:10:11;115.40;;;59.90;;
48897;SDS011;34713;50.038;20.000;2023-12-07T13:12:38;117.00;;;62.30;;
48897;SDS011;34713;50.038;20.000;2023-12-07T13:15:04;119.10;;;62.80;;
48897;SDS011;34713;50.038;20.000;2023-12-07T13:17:31;116.70;;;61.30;;
48897;SDS011;34713;50.038;20.000;2023-12-07T13:19:58;120.80;;;62.70;;
48897;SDS011;34713;50.038;20.000;2023-12-07T13:22:24;119.90;;;58.30;;
48897;SDS011;34713;50.038;20.000;2023-12-07T13:24:51;118.10;;;62.20;;
48897;SDS011;34713;50.038;20.000;2023-12-07T13:27:17;123.10;;;64.30;;
48897;SDS011;34713;50.038;20.000;2023-12-07T13:29:44;118.70;;;60.90;;
48897;SDS011;34713;50.038;20.000;2023-12-07T13:32:11;122.00;;;62.50;;
48897;SDS011;34713;50.038;20.000;2023-12-07T13:34:38;121.30;;;59.60;;
48897;SDS011;34713;50.038;20.000;2023-12-07T13:37:04;126.80;;;63.30;;
48897;SDS011;34713;50.038;20.000;2023-12-07T13:39:31;118.70;;;62.80;;
48897;SDS011;34713;50.038;20.000;2023-12-07T13:41:58;116.50;;;61.80;;
48897;SDS011;34713;50.038;20.000;2023-12-07T13:44:26;126.30;;;62.80;;
48897;SDS011;34713;50.038;20.000;2023-12-07T13:46:52;119.60;;;61.20;;
48897;SDS011;34713;50.038;20.000;2023-12-07T13:49:20;123.70;;;63.30;;
48897;SDS011;34713;50.038;20.000;2023-12-07T13:51:47;120.50;;;63.60;;
48897;SDS011;34713;50.038;20.000;2023-12-07T13:54:13;121.20;;;65.00;;
48897;SDS011;34713;50.038;20.000;2023-12-07T13:56:40;128.00;;;65.50;;
48897;SDS011;34713;50.038;20.000;2023-12-07T13:59:06;130.10;;;67.50;;
48897;SDS011;34713;50.038;20.000;2023-12-07T14:01:36;113.40;;;62.10;;
48897;SDS011;34713;50.038;20.000;2023-12-07T14:04:08;124.80;;;65.90;;
48897;SDS011;34713;50.038;20.000;2023-12-07T14:06:35;125.00;;;64.60;;
48897;SDS011;34713;50.038;20.000;2023-12-07T14:09:01;117.10;;;61.90;;
48897;SDS011;34713;50.038;20.000;2023-12-07T14:11:29;123.00;;;62.70;;